Time;durP1;ratioP1;P1;durP2;ratioP2;P2;SDS_P1;SDS_P2;PMS_P1;PMS_P2;Temp;Humidity;BMP_temperature;BMP_pressure;BME280_temperature;BME280_humidity;BME280_pressure;Samples;Min_cycle;Max_cycle;Signal;HPM_P1;HPM_P2
2021/08/30 00:00:44;;;;;;;12.32;6.40;;;12.40;99.90;;;;;;5135924;27;20046;-52
2021/08/30 00:03:10;;;;;;;11.55;6.80;;;12.30;99.90;;;;;;5082994;27;20046;-50
2021/08/30 00:05:36;;;;;;;11.40;7.43;;;12.40;99.90;;;;;;5135819;27;20030;-51
2021/08/30 00:08:04;;;;;;;9.50;7.18;;;12.60;99.90;;;;;;5135789;27;20023;-51
2021/08/30 00:10:30;;;;;;;7.90;6.55;;;12.80;99.90;;;;;;5116657;27;20039;-51
2021/08/30 00:12:55;;;;;;;10.13;7.50;;;13.00;99.90;;;;;;5099541;27;20106;-51
2021/08/30 00:15:21;;;;;;;9.93;7.20;;;12.70;99.90;;;;;;5099576;27;20087;-51
2021/08/30 00:17:49;;;;;;;9.88;6.68;;;12.80;99.90;;;;;;5099631;27;20035;-51
2021/08/30 00:20:17;;;;;;;12.93;8.40;;;13.00;99.90;;;;;;5135552;27;20109;-50
2021/08/30 00:22:44;;;;;;;12.05;6.97;;;12.90;99.90;;;;;;5129692;27;20397;-49
2021/08/30 00:25:11;;;;;;;11.95;7.75;;;13.10;99.90;;;;;;5135391;27;20019;-52
2021/08/30 00:27:37;;;;;;;13.82;8.02;;;12.90;99.90;;;;;;5135414;27;20046;-50
2021/08/30 00:30:04;;;;;;;13.25;7.63;;;12.50;99.90;;;;;;5082746;27;20035;-51
2021/08/30 00:32:30;;;;;;;12.20;7.68;;;12.40;99.90;;;;;;5065954;27;20067;-50
2021/08/30 00:34:56;;;;;;;10.50;8.02;;;12.50;99.90;;;;;;5099224;27;20081;-50
2021/08/30 00:37:22;;;;;;;10.20;8.30;;;12.60;99.90;;;;;;5082387;27;20077;-51
2021/08/30 00:39:48;;;;;;;13.40;8.80;;;12.70;99.90;;;;;;5135109;27;20027;-50
2021/08/30 00:42:14;;;;;;;9.35;6.85;;;12.60;99.90;;;;;;5135077;27;20045;-51
2021/08/30 00:44:40;;;;;;;10.15;7.03;;;12.50;99.90;;;;;;5135201;27;20462;-51
2021/08/30 00:47:06;;;;;;;10.57;8.18;;;12.30;99.90;;;;;;5135096;27;20019;-50
2021/08/30 00:49:32;;;;;;;11.88;7.85;;;12.20;99.90;;;;;;5021996;28;20463;-51
2021/08/30 00:51:58;;;;;;;13.57;7.78;;;12.20;99.90;;;;;;5005293;28;20468;-50
2021/08/30 00:54:26;;;;;;;14.60;7.68;;;12.00;99.90;;;;;;5071587;28;20039;-51
2021/08/30 00:56:52;;;;;;;12.43;8.68;;;12.00;99.90;;;;;;5071631;28;20082;-50
2021/08/30 00:59:18;;;;;;;12.77;8.15;;;11.80;99.90;;;;;;5071595;28;20045;-50
2021/08/30 01:01:44;;;;;;;11.32;8.10;;;12.00;99.90;;;;;;4988852;28;20120;-51
2021/08/30 01:04:13;;;;;;;12.75;8.57;;;12.00;99.90;;;;;;5038048;28;20066;-50
2021/08/30 01:07:17;;;;;;;12.32;9.05;;;12.00;99.90;;;;;;5071521;28;20028;-51
2021/08/30 01:09:56;;;;;;;13.15;9.30;;;12.30;99.90;;;;;;5071472;28;20044;-50
2021/08/30 01:12:31;;;;;;;11.68;8.15;;;12.50;99.90;;;;;;5071363;28;20565;-50
2021/08/30 01:15:04;;;;;;;12.60;8.85;;;12.70;99.90;;;;;;5071304;28;20373;-50
2021/08/30 01:17:32;;;;;;;14.75;8.93;;;12.80;99.90;;;;;;5071405;28;20031;-49
2021/08/30 01:20:11;;;;;;;12.55;8.88;;;12.90;99.90;;;;;;5088298;27;20031;-49
2021/08/30 01:22:42;;;;;;;15.38;7.70;;;13.00;99.90;;;;;;5081509;27;20501;-49
2021/08/30 01:25:11;;;;;;;10.95;7.80;;;13.10;99.90;;;;;;5134370;27;20027;-49
2021/08/30 01:27:39;;;;;;;12.82;8.52;;;13.10;99.90;;;;;;5134350;27;20114;-49
2021/08/30 01:30:08;;;;;;;12.32;8.25;;;13.10;99.90;;;;;;5134225;27;20485;-50
2021/08/30 01:32:37;;;;;;;11.00;7.45;;;13.10;99.90;;;;;;5082387;28;20035;-49
2021/08/30 01:35:06;;;;;;;13.48;7.55;;;13.20;99.90;;;;;;5134318;28;20377;-49
2021/08/30 01:37:33;;;;;;;9.77;7.40;;;13.10;99.90;;;;;;5082325;28;20122;-49
2021/08/30 01:40:00;;;;;;;10.50;7.20;;;13.10;99.90;;;;;;5134203;28;20024;-48
2021/08/30 01:42:29;;;;;;;11.98;8.50;;;13.20;99.90;;;;;;5134231;28;20062;-50
2021/08/30 01:44:56;;;;;;;10.48;7.70;;;13.20;99.90;;;;;;5134200;28;20550;-50
2021/08/30 01:47:22;;;;;;;13.75;7.70;;;13.30;99.90;;;;;;5134200;28;20055;-49
2021/08/30 01:49:59;;;;;;;13.98;8.70;;;13.20;99.90;;;;;;5134375;28;20115;-48
2021/08/30 01:52:26;;;;;;;13.82;9.07;;;13.20;99.90;;;;;;5134090;28;20074;-49
2021/08/30 01:54:53;;;;;;;12.23;7.88;;;13.20;99.90;;;;;;5134168;28;20034;-49
2021/08/30 01:57:22;;;;;;;14.18;8.75;;;13.20;99.90;;;;;;5134082;28;20065;-50
2021/08/30 02:02:35;;;;;;;12.40;7.82;;;12.30;99.90;;;;;;5134459;28;20448;-48
2021/08/30 02:05:00;;;;;;;15.02;9.05;;;12.20;99.90;;;;;;5134219;28;20071;-50
2021/08/30 02:07:27;;;;;;;9.00;6.78;;;12.10;99.90;;;;;;5133945;28;20102;-49
2021/08/30 02:09:52;;;;;;;9.85;6.80;;;11.60;99.90;;;;;;5133998;28;20075;-50
2021/08/30 02:12:18;;;;;;;11.65;7.63;;;11.20;99.90;;;;;;5134045;27;20039;-50
2021/08/30 02:14:44;;;;;;;11.65;8.10;;;11.30;99.90;;;;;;5051514;27;20046;-48
2021/08/30 02:17:16;;;;;;;10.75;7.53;;;11.30;99.90;;;;;;5138100;27;20123;-49
2021/08/30 02:20:00;;;;;;;15.88;7.80;;;11.20;99.90;;;;;;5138073;27;20046;-48
2021/08/30 02:22:35;;;;;;;12.15;7.93;;;11.20;99.90;;;;;;5137918;27;20029;-48
2021/08/30 02:25:05;;;;;;;14.70;8.30;;;11.30;99.90;;;;;;5137851;27;20035;-50
2021/08/30 02:27:50;;;;;;;12.38;8.20;;;11.40;99.90;;;;;;5137706;27;20023;-51
2021/08/30 02:30:26;;;;;;;14.73;8.10;;;11.70;99.90;;;;;;5137884;27;20060;-49
2021/08/30 02:32:53;;;;;;;9.77;7.28;;;11.90;99.90;;;;;;5137770;27;20049;-49
2021/08/30 02:35:24;;;;;;;13.77;7.50;;;12.00;99.90;;;;;;5101624;27;20043;-48
2021/08/30 02:37:52;;;;;;;10.38;7.38;;;12.20;99.90;;;;;;5137579;27;20023;-48
2021/08/30 02:40:21;;;;;;;11.77;7.38;;;12.30;99.90;;;;;;5137236;27;20072;-49
2021/08/30 02:42:47;;;;;;;11.05;7.47;;;12.40;99.90;;;;;;5137495;27;20033;-50
2021/08/30 02:45:14;;;;;;;10.02;7.65;;;12.60;99.90;;;;;;5101479;27;20412;-50
2021/08/30 02:47:41;;;;;;;12.90;6.95;;;12.60;99.90;;;;;;5137419;27;20449;-49
2021/08/30 02:50:09;;;;;;;9.00;6.55;;;12.60;99.90;;;;;;5137274;27;20107;-49
2021/08/30 02:52:37;;;;;;;8.88;5.85;;;12.60;99.90;;;;;;5067912;27;20398;-50
2021/08/30 02:55:04;;;;;;;10.55;7.03;;;12.60;99.90;;;;;;5137145;27;20023;-51
2021/08/30 02:57:32;;;;;;;10.05;7.07;;;12.60;99.90;;;;;;5084715;27;20439;-51
2021/08/30 02:59:59;;;;;;;9.82;6.65;;;12.70;99.90;;;;;;5137079;27;20027;-49
2021/08/30 03:02:25;;;;;;;8.57;6.13;;;12.60;99.90;;;;;;5136953;27;20031;-49
2021/08/30 03:04:52;;;;;;;10.10;6.55;;;12.50;99.90;;;;;;5101173;27;20130;-50
2021/08/30 03:07:18;;;;;;;8.68;6.07;;;12.60;99.90;;;;;;5136894;27;20030;-49
2021/08/30 03:09:45;;;;;;;12.50;7.55;;;12.80;99.90;;;;;;5137077;27;20426;-49
2021/08/30 03:12:13;;;;;;;8.30;6.63;;;12.80;99.90;;;;;;5136791;27;20447;-48
2021/08/30 03:14:40;;;;;;;9.77;6.40;;;12.90;99.90;;;;;;5136828;27;20056;-48
2021/08/30 03:17:10;;;;;;;10.00;6.47;;;12.90;99.90;;;;;;5136772;27;20055;-49
2021/08/30 03:19:40;;;;;;;7.55;5.93;;;12.90;99.90;;;;;;5100672;27;20398;-50
2021/08/30 03:22:06;;;;;;;12.50;6.20;;;12.90;99.90;;;;;;5136774;27;20030;-48
2021/08/30 03:24:33;;;;;;;9.10;5.45;;;12.90;99.90;;;;;;5136325;27;20106;-50
2021/08/30 03:26:59;;;;;;;10.85;6.63;;;12.90;99.90;;;;;;5136694;27;20016;-51
2021/08/30 03:29:26;;;;;;;7.95;6.03;;;12.90;99.90;;;;;;5136485;27;20486;-49
2021/08/30 03:31:52;;;;;;;10.18;5.95;;;12.90;99.90;;;;;;5136442;27;20031;-48
2021/08/30 03:34:21;;;;;;;8.07;5.88;;;12.80;99.90;;;;;;5136441;27;20099;-50
2021/08/30 03:36:48;;;;;;;10.98;6.10;;;12.80;99.90;;;;;;5136453;27;20019;-51
2021/08/30 03:39:15;;;;;;;8.95;5.78;;;12.90;99.90;;;;;;5117898;27;20028;-50
2021/08/30 03:41:41;;;;;;;8.30;6.05;;;12.90;99.90;;;;;;5136076;27;20071;-50
2021/08/30 03:44:09;;;;;;;7.90;5.65;;;13.00;99.90;;;;;;5050089;27;20039;-49
2021/08/30 03:46:37;;;;;;;8.10;6.03;;;12.90;99.90;;;;;;5136341;27;20019;-50
2021/08/30 03:49:05;;;;;;;7.78;5.68;;;12.90;99.90;;;;;;5097282;27;20031;-49
2021/08/30 03:51:31;;;;;;;7.93;6.05;;;12.80;99.90;;;;;;5099893;27;20047;-49
2021/08/30 03:53:57;;;;;;;6.90;6.20;;;12.90;99.90;;;;;;5136005;27;20122;-50
2021/08/30 03:56:25;;;;;;;8.68;5.78;;;12.90;99.90;;;;;;5136056;27;20081;-49
2021/08/30 03:58:53;;;;;;;11.98;6.10;;;12.90;99.90;;;;;;5136104;27;20031;-50
2021/08/30 04:01:24;;;;;;;8.02;5.78;;;12.90;99.90;;;;;;5136035;27;20079;-49
2021/08/30 04:03:53;;;;;;;8.52;6.00;;;12.90;99.90;;;;;;5136015;27;20027;-50
2021/08/30 04:06:20;;;;;;;9.35;5.75;;;12.90;99.90;;;;;;5135797;27;20470;-48
2021/08/30 04:08:46;;;;;;;9.90;6.32;;;12.80;99.90;;;;;;5135991;27;20023;-50
2021/08/30 04:11:14;;;;;;;8.73;6.15;;;12.90;99.90;;;;;;5135814;27;20043;-50
2021/08/30 04:13:41;;;;;;;13.80;7.40;;;12.90;99.90;;;;;;5135754;27;20534;-50
2021/08/30 04:16:07;;;;;;;12.23;7.55;;;13.00;99.90;;;;;;5135871;27;20027;-48
2021/08/30 04:18:34;;;;;;;8.27;6.85;;;13.00;99.90;;;;;;5135534;27;20019;-49
2021/08/30 04:21:00;;;;;;;11.95;7.35;;;13.00;99.90;;;;;;5135571;27;20043;-50
2021/08/30 04:23:26;;;;;;;11.00;7.22;;;13.00;99.90;;;;;;5135584;27;20108;-49
2021/08/30 04:25:51;;;;;;;10.93;7.65;;;13.00;99.90;;;;;;5135492;27;20031;-50
2021/08/30 04:28:17;;;;;;;10.38;7.75;;;13.10;99.90;;;;;;5135522;27;20076;-50
2021/08/30 04:30:43;;;;;;;9.25;7.15;;;13.00;99.90;;;;;;5099273;27;20035;-48
2021/08/30 04:33:13;;;;;;;9.10;7.47;;;12.90;99.90;;;;;;5082685;27;20118;-50
2021/08/30 04:35:39;;;;;;;9.88;7.45;;;12.90;99.90;;;;;;5134521;27;20393;-50
2021/08/30 04:38:06;;;;;;;8.68;6.45;;;13.00;99.90;;;;;;5135258;27;20019;-50
2021/08/30 04:40:32;;;;;;;10.57;7.97;;;13.10;99.90;;;;;;5098858;27;20082;-49
2021/08/30 04:42:58;;;;;;;8.75;6.43;;;13.20;99.90;;;;;;5135270;27;20027;-50
2021/08/30 04:45:24;;;;;;;11.80;6.88;;;13.20;99.90;;;;;;5135141;27;20054;-49
2021/08/30 04:47:50;;;;;;;10.20;6.60;;;13.30;99.90;;;;;;5134985;27;20038;-50
2021/08/30 04:50:16;;;;;;;11.85;6.85;;;13.40;99.90;;;;;;5099006;27;20043;-50
2021/08/30 04:52:42;;;;;;;13.80;8.68;;;13.50;99.90;;;;;;5134882;27;20027;-48
2021/08/30 04:55:08;;;;;;;8.80;7.15;;;13.60;99.90;;;;;;5134879;27;20080;-49
2021/08/30 04:57:34;;;;;;;11.27;7.22;;;13.70;99.90;;;;;;5134892;27;20023;-51
2021/08/30 05:00:00;;;;;;;9.63;7.10;;;13.80;99.90;;;;;;5134928;27;20026;-49
2021/08/30 05:02:26;;;;;;;8.85;7.00;;;13.90;99.90;;;;;;5134912;27;20023;-48
2021/08/30 05:04:55;;;;;;;12.38;7.03;;;14.00;99.90;;;;;;5134671;27;20118;-50
2021/08/30 05:07:21;;;;;;;10.40;5.97;;;14.00;99.90;;;;;;5134911;27;20129;-50
2021/08/30 05:09:46;;;;;;;13.63;6.82;;;14.10;99.90;;;;;;5115990;27;20118;-51
2021/08/30 05:12:12;;;;;;;8.00;5.78;;;14.10;99.90;;;;;;5081987;27;20047;-50
2021/08/30 05:14:38;;;;;;;6.65;5.95;;;14.20;99.90;;;;;;5098611;27;20047;-51
2021/08/30 05:17:04;;;;;;;9.05;6.93;;;14.30;99.90;;;;;;5134762;27;20390;-49
2021/08/30 05:19:30;;;;;;;8.75;6.60;;;14.30;99.90;;;;;;5134846;27;20412;-50
2021/08/30 05:21:55;;;;;;;8.55;6.53;;;14.20;99.90;;;;;;5134599;27;20030;-51
2021/08/30 05:24:21;;;;;;;9.15;6.70;;;14.20;99.90;;;;;;5134665;27;20528;-51
2021/08/30 05:26:47;;;;;;;13.52;7.63;;;14.30;99.90;;;;;;5081613;28;20038;-49
2021/08/30 05:29:12;;;;;;;9.73;6.10;;;14.50;99.90;;;;;;5093715;28;20080;-51
2021/08/30 05:31:38;;;;;;;7.93;5.88;;;14.70;99.90;;;;;;5123485;27;20106;-49
2021/08/30 05:34:04;;;;;;;7.78;5.88;;;14.80;99.90;;;;;;5122830;28;20024;-49
2021/08/30 05:36:30;;;;;;;6.95;5.28;;;14.90;99.90;;;;;;5124042;28;20031;-51
2021/08/30 05:38:56;;;;;;;8.02;4.80;;;15.00;99.90;;;;;;5096635;28;20048;-50
2021/08/30 05:41:22;;;;;;;9.05;5.93;;;15.20;99.90;;;;;;5121694;28;20047;-51
2021/08/30 05:43:48;;;;;;;6.15;5.22;;;15.30;99.90;;;;;;5122238;28;20542;-51
2021/08/30 05:46:17;;;;;;;5.72;4.55;;;15.40;99.90;;;;;;5121132;28;20066;-49
2021/08/30 05:48:45;;;;;;;7.68;5.00;;;15.50;99.90;;;;;;5111116;27;20035;-49
2021/08/30 05:51:11;;;;;;;5.57;4.70;;;15.60;99.90;;;;;;5072122;28;20447;-51
2021/08/30 05:53:38;;;;;;;6.53;4.03;;;15.70;99.90;;;;;;5069235;28;20082;-51
2021/08/30 05:56:04;;;;;;;5.63;4.10;;;15.70;99.90;;;;;;5073075;28;20040;-49
2021/08/30 05:58:29;;;;;;;5.50;3.85;;;15.80;99.90;;;;;;5072339;28;20527;-50
2021/08/30 06:00:55;;;;;;;5.57;3.78;;;15.90;99.90;;;;;;5074381;28;20047;-49
2021/08/30 06:03:21;;;;;;;6.28;4.03;;;16.00;99.90;;;;;;5072586;28;20431;-50
2021/08/30 06:05:47;;;;;;;4.70;3.60;;;16.10;99.90;;;;;;5070938;28;20060;-49
2021/08/30 06:08:13;;;;;;;4.95;3.20;;;16.10;99.90;;;;;;5071983;28;20040;-49
2021/08/30 06:10:38;;;;;;;5.63;3.17;;;16.20;99.90;;;;;;5039520;28;20060;-49
2021/08/30 06:13:04;;;;;;;4.40;2.90;;;16.30;99.90;;;;;;5074722;28;20032;-50
2021/08/30 06:15:30;;;;;;;3.67;2.80;;;16.30;99.90;;;;;;5008159;28;20094;-50
2021/08/30 06:17:56;;;;;;;5.45;3.25;;;16.30;99.90;;;;;;5074657;28;20057;-50
2021/08/30 06:20:22;;;;;;;6.60;3.33;;;16.30;99.90;;;;;;5073575;28;20035;-48
2021/08/30 06:22:48;;;;;;;5.07;3.42;;;16.30;99.90;;;;;;5114927;27;20039;-48
2021/08/30 06:25:14;;;;;;;4.35;3.20;;;16.40;99.90;;;;;;5128158;27;20038;-48
2021/08/30 06:27:39;;;;;;;5.57;3.22;;;16.50;99.90;;;;;;5128337;27;20035;-51
2021/08/30 06:30:05;;;;;;;4.22;3.08;;;16.50;99.90;;;;;;5131623;27;20023;-48
2021/08/30 06:32:31;;;;;;;5.97;3.15;;;16.60;99.90;;;;;;5127564;27;20031;-48
2021/08/30 06:34:57;;;;;;;4.45;3.10;;;16.60;99.90;;;;;;5117097;28;20034;-48
2021/08/30 06:37:23;;;;;;;6.55;3.05;;;16.70;99.90;;;;;;5117385;28;20031;-50
2021/08/30 06:39:49;;;;;;;6.43;3.08;;;16.80;99.90;;;;;;5098363;28;20509;-50
2021/08/30 06:42:15;;;;;;;5.95;2.13;;;16.90;99.90;;;;;;5135642;27;20047;-48
2021/08/30 06:44:40;;;;;;;6.78;2.60;;;16.90;99.90;;;;;;5137110;27;20031;-50
2021/08/30 06:47:06;;;;;;;4.93;2.90;;;16.90;99.90;;;;;;5137491;27;20034;-48
2021/08/30 06:49:32;;;;;;;3.47;2.58;;;17.00;99.90;;;;;;5119065;27;20035;-49
2021/08/30 06:51:58;;;;;;;5.68;2.35;;;17.10;99.90;;;;;;5064841;27;20114;-49
2021/08/30 06:54:23;;;;;;;3.05;2.55;;;17.20;99.90;;;;;;5117389;27;20020;-48
2021/08/30 06:56:49;;;;;;;2.38;2.00;;;17.30;99.90;;;;;;5036280;27;20099;-50
2021/08/30 06:59:15;;;;;;;3.40;2.10;;;17.30;99.90;;;;;;5100913;27;20074;-49
2021/08/30 07:01:41;;;;;;;3.60;2.15;;;17.30;99.90;;;;;;5101145;27;20035;-50
2021/08/30 07:04:07;;;;;;;3.53;2.35;;;17.40;99.90;;;;;;5137167;27;20034;-50
2021/08/30 07:06:33;;;;;;;3.05;2.30;;;17.50;99.90;;;;;;5137198;27;20497;-50
2021/08/30 07:09:02;;;;;;;3.00;2.03;;;17.50;99.90;;;;;;5137034;27;20072;-48
2021/08/30 07:11:28;;;;;;;3.92;2.60;;;17.60;99.90;;;;;;5137186;27;20062;-48
2021/08/30 07:13:54;;;;;;;3.63;1.92;;;17.60;99.90;;;;;;5133469;27;20096;-49
2021/08/30 07:16:20;;;;;;;3.45;1.95;;;17.70;99.90;;;;;;5137056;27;20502;-48
2021/08/30 07:18:46;;;;;;;4.28;2.17;;;17.80;99.90;;;;;;5137020;27;20107;-50
2021/08/30 07:21:11;;;;;;;2.15;1.67;;;17.90;99.90;;;;;;5136965;27;20114;-49
2021/08/30 07:23:37;;;;;;;3.95;1.77;;;18.00;99.90;;;;;;5136946;27;20378;-49
2021/08/30 07:26:04;;;;;;;3.42;2.25;;;18.00;99.90;;;;;;5136813;27;20031;-49
2021/08/30 07:28:30;;;;;;;2.50;2.05;;;18.10;99.90;;;;;;5136923;27;20535;-49
2021/08/30 07:30:55;;;;;;;2.67;2.15;;;18.30;99.90;;;;;;5127842;27;20487;-50
2021/08/30 07:33:21;;;;;;;2.80;1.48;;;18.40;99.90;;;;;;5100514;27;20043;-49
2021/08/30 07:35:47;;;;;;;2.85;2.20;;;18.20;99.90;;;;;;5136446;27;20028;-48
2021/08/30 07:38:13;;;;;;;3.28;2.03;;;18.30;99.90;;;;;;5136747;27;20037;-49
2021/08/30 07:40:39;;;;;;;2.33;1.90;;;18.50;99.90;;;;;;5120931;27;20031;-49
2021/08/30 07:43:05;;;;;;;2.88;2.30;;;18.60;99.90;;;;;;5134910;27;20050;-48
2021/08/30 07:45:31;;;;;;;3.55;2.30;;;18.80;99.90;;;;;;5078384;27;20478;-49
2021/08/30 07:47:57;;;;;;;2.90;2.20;;;18.90;99.90;;;;;;5115566;28;20042;-49
2021/08/30 07:50:23;;;;;;;4.55;2.80;;;19.00;99.90;;;;;;5115610;28;20036;-49
2021/08/30 07:52:49;;;;;;;2.55;1.90;;;19.10;99.90;;;;;;5115838;28;20122;-48
2021/08/30 07:55:16;;;;;;;4.78;2.30;;;19.20;99.90;;;;;;5115861;28;20070;-49
2021/08/30 07:57:41;;;;;;;3.35;2.25;;;19.40;99.90;;;;;;5112568;28;20031;-48
2021/08/30 08:00:08;;;;;;;3.90;2.28;;;19.50;99.90;;;;;;5115510;28;20436;-49
2021/08/30 08:02:34;;;;;;;3.00;2.00;;;19.60;99.90;;;;;;5115777;28;20055;-47
2021/08/30 08:05:00;;;;;;;5.30;2.15;;;19.80;99.90;;;;;;5115452;28;20024;-50
2021/08/30 08:07:25;;;;;;;7.97;2.53;;;20.00;99.90;;;;;;5115465;28;20374;-49
2021/08/30 08:09:51;;;;;;;2.92;2.30;;;19.90;99.90;;;;;;5115508;28;20039;-49
2021/08/30 08:12:17;;;;;;;2.78;2.28;;;20.00;99.90;;;;;;5062630;28;20043;-48
2021/08/30 08:14:43;;;;;;;3.90;2.22;;;20.20;99.90;;;;;;5115591;28;20042;-48
2021/08/30 08:17:08;;;;;;;2.75;2.22;;;20.20;99.90;;;;;;5115205;28;20157;-48
2021/08/30 08:19:34;;;;;;;2.90;2.22;;;20.40;99.90;;;;;;5115566;28;20164;-48
2021/08/30 08:22:02;;;;;;;3.17;2.22;;;20.50;99.90;;;;;;5115327;28;20028;-48
2021/08/30 08:24:28;;;;;;;5.78;2.88;;;20.40;99.90;;;;;;5115005;28;20041;-47
2021/08/30 08:26:54;;;;;;;2.80;2.13;;;20.70;99.90;;;;;;5115342;28;20027;-50
2021/08/30 08:29:20;;;;;;;3.50;2.25;;;20.70;99.90;;;;;;5115197;28;20027;-48
2021/08/30 08:31:46;;;;;;;4.32;2.42;;;20.80;99.90;;;;;;5115060;28;20110;-50
2021/08/30 08:34:12;;;;;;;3.70;2.65;;;20.90;99.90;;;;;;5115177;28;20031;-48
2021/08/30 08:36:39;;;;;;;2.70;1.98;;;20.70;99.90;;;;;;5063313;28;20043;-50
2021/08/30 08:39:07;;;;;;;2.63;2.05;;;20.70;99.90;;;;;;5114866;28;20036;-50
2021/08/30 08:41:38;;;;;;;2.88;2.30;;;20.90;99.90;;;;;;5101921;28;20097;-48
2021/08/30 08:44:07;;;;;;;3.90;2.25;;;21.10;99.40;;;;;;5094574;28;20035;-50
2021/08/30 08:46:36;;;;;;;3.25;2.13;;;21.10;98.90;;;;;;5094708;28;20387;-49
2021/08/30 08:49:02;;;;;;;2.78;2.25;;;21.10;99.10;;;;;;5094401;28;20047;-50
2021/08/30 08:51:29;;;;;;;2.60;2.20;;;21.40;98.70;;;;;;5094264;28;20032;-50
2021/08/30 08:53:55;;;;;;;5.85;3.08;;;21.40;99.70;;;;;;5094240;28;20050;-50
2021/08/30 08:56:25;;;;;;;3.22;2.47;;;21.60;98.30;;;;;;5094177;28;20419;-49
2021/08/30 08:58:51;;;;;;;3.53;2.35;;;21.80;96.80;;;;;;5094351;28;20055;-50
2021/08/30 09:01:25;;;;;;;4.22;3.03;;;22.10;97.40;;;;;;5093924;28;20035;-50
2021/08/30 09:03:55;;;;;;;3.22;2.20;;;22.30;97.80;;;;;;5075614;28;20063;-48
2021/08/30 09:06:31;;;;;;;5.03;2.50;;;22.50;96.50;;;;;;5094263;28;20071;-50
2021/08/30 09:09:14;;;;;;;2.92;2.20;;;22.40;96.20;;;;;;5094262;28;20032;-49
2021/08/30 09:11:46;;;;;;;8.45;3.00;;;22.50;95.20;;;;;;5093865;28;20043;-48
2021/08/30 09:14:17;;;;;;;6.72;2.65;;;22.70;95.10;;;;;;5094122;28;20032;-49
2021/08/30 09:16:45;;;;;;;3.50;2.30;;;22.70;95.60;;;;;;5094487;28;20055;-50
2021/08/30 09:19:14;;;;;;;4.72;2.50;;;23.20;94.50;;;;;;5093928;28;20265;-50
2021/08/30 09:21:42;;;;;;;3.58;2.35;;;23.50;94.50;;;;;;5074976;28;20040;-49
2021/08/30 09:24:10;;;;;;;2.83;2.30;;;23.70;93.50;;;;;;5075667;28;20468;-47
2021/08/30 09:26:42;;;;;;;4.05;2.70;;;23.60;92.80;;;;;;5041757;28;20070;-51
2021/08/30 09:29:15;;;;;;;5.30;3.08;;;23.00;93.50;;;;;;5094189;28;20032;-49
2021/08/30 09:31:40;;;;;;;3.97;2.22;;;23.20;94.10;;;;;;5094012;28;20055;-50
2021/08/30 09:34:11;;;;;;;4.68;2.60;;;23.60;93.10;;;;;;5089409;28;20376;-49
2021/08/30 09:36:43;;;;;;;5.07;2.47;;;23.70;93.30;;;;;;5073510;28;20037;-49
2021/08/30 09:39:08;;;;;;;;;;;23.70;93.60;;;;;;5073941;28;20025;-49
2021/08/30 09:41:37;;;;;;;2.70;2.17;;;24.20;93.20;;;;;;5073209;28;20272;-48
2021/08/30 09:44:04;;;;;;;3.47;2.50;;;23.80;92.70;;;;;;5022020;28;20064;-48
2021/08/30 09:46:31;;;;;;;3.85;2.40;;;23.50;92.20;;;;;;5038325;28;20037;-48
2021/08/30 09:49:15;;;;;;;5.50;2.50;;;23.20;92.00;;;;;;5073068;28;20569;-50
2021/08/30 09:51:41;;;;;;;3.88;2.55;;;23.70;92.00;;;;;;5073186;28;20040;-50
2021/08/30 09:54:07;;;;;;;3.17;2.88;;;24.20;91.40;;;;;;5073150;28;20361;-50
2021/08/30 09:56:37;;;;;;;3.13;2.50;;;24.30;90.70;;;;;;5073204;28;20029;-50
2021/08/30 09:59:07;;;;;;;3.03;2.72;;;24.30;91.30;;;;;;5072927;28;20032;-50
2021/08/30 10:01:42;;;;;;;3.75;2.63;;;;;;;;;;5072916;28;20037;-50
2021/08/30 10:04:09;;;;;;;3.88;2.42;;;;;;;;;;5072969;28;20445;-49
2021/08/30 10:06:37;;;;;;;4.68;2.50;;;;;;;;;;5073055;28;20036;-48
2021/08/30 10:09:10;;;;;;;2.65;2.25;;;25.00;99.90;;;;;;5072987;28;20029;-49
2021/08/30 10:11:36;;;;;;;3.28;2.65;;;;;;;;;;5073152;28;20444;-49
2021/08/30 10:14:04;;;;;;;2.85;1.73;;;25.20;99.90;;;;;;5073064;28;20042;-49
2021/08/30 10:16:30;;;;;;;2.60;2.00;;;;;;;;;;5073265;28;20035;-49
2021/08/30 10:18:58;;;;;;;3.03;2.10;;;;;;;;;;5072787;28;20043;-51
2021/08/30 10:21:26;;;;;;;5.45;2.05;;;25.70;99.90;;;;;;5072904;28;20033;-51
2021/08/30 10:23:51;;;;;;;2.70;2.30;;;26.10;96.20;;;;;;5073097;28;20028;-50
2021/08/30 10:26:18;;;;;;;4.75;2.15;;;26.10;85.10;;;;;;5073109;28;20028;-50
2021/08/30 10:28:46;;;;;;;3.75;2.10;;;25.30;84.50;;;;;;5072876;28;20035;-51
2021/08/30 10:31:21;;;;;;;3.47;1.88;;;25.20;82.80;;;;;;5072588;28;20045;-49
2021/08/30 10:33:49;;;;;;;3.45;2.00;;;25.10;81.10;;;;;;5073739;28;20029;-49
2021/08/30 10:36:17;;;;;;;3.38;1.80;;;25.60;82.40;;;;;;5076823;28;20437;-50
2021/08/30 10:38:43;;;;;;;3.50;1.85;;;;;;;;;;5073350;28;20060;-49
2021/08/30 10:41:17;;;;;;;3.97;1.90;;;;;;;;;;5076236;28;20044;-48
2021/08/30 10:43:44;;;;;;;2.10;1.90;;;26.60;78.90;;;;;;5076570;28;20111;-51
2021/08/30 10:46:17;;;;;;;2.30;1.73;;;;;;;;;;5076431;28;20044;-48
2021/08/30 10:48:49;;;;;;;2.00;1.50;;;26.90;75.80;;;;;;5076308;28;20031;-50
2021/08/30 10:51:21;;;;;;;1.73;1.55;;;26.70;78.70;;;;;;5076094;28;20040;-50
2021/08/30 10:54:05;;;;;;;1.85;1.65;;;26.80;76.10;;;;;;5076498;28;20032;-49
2021/08/30 10:56:32;;;;;;;1.77;1.50;;;27.20;75.80;;;;;;5076518;28;20067;-49
2021/08/30 10:59:06;;;;;;;4.13;3.08;;;;;;;;;;5041303;28;20044;-50
2021/08/30 11:01:33;;;;;;;1.90;1.70;;;27.40;74.60;;;;;;5075810;28;20044;-49
2021/08/30 11:03:59;;;;;;;3.83;1.95;;;26.60;75.80;;;;;;5076011;28;20072;-49
2021/08/30 11:06:25;;;;;;;2.22;1.80;;;25.70;75.90;;;;;;5076205;28;20036;-48
2021/08/30 11:08:52;;;;;;;1.75;1.55;;;25.40;78.20;;;;;;5075945;28;20032;-48
2021/08/30 11:11:23;;;;;;;2.35;1.80;;;25.70;76.30;;;;;;5073770;28;20566;-50
2021/08/30 11:14:08;;;;;;;2.03;1.75;;;26.30;75.00;;;;;;5074996;28;20024;-52
2021/08/30 11:16:38;;;;;;;3.35;1.73;;;26.40;74.10;;;;;;5074730;28;20036;-51
2021/08/30 11:19:14;;;;;;;2.20;1.40;;;26.70;74.40;;;;;;5074578;28;20097;-48
2021/08/30 11:21:47;;;;;;;2.47;1.65;;;27.20;73.90;;;;;;5074617;28;20325;-51
2021/08/30 11:24:21;;;;;;;2.20;1.70;;;27.30;72.20;;;;;;5074174;28;20104;-49
2021/08/30 11:26:47;;;;;;;2.47;1.75;;;;;;;;;;5074557;28;20024;-49
2021/08/30 11:29:13;;;;;;;4.35;1.42;;;27.60;73.40;;;;;;5074392;28;20031;-50
2021/08/30 11:31:40;;;;;;;1.60;1.30;;;;;;;;;;5038736;28;20407;-48
2021/08/30 11:34:08;;;;;;;1.85;1.35;;;27.70;69.50;;;;;;5074355;28;20043;-50
2021/08/30 11:36:45;;;;;;;1.40;1.30;;;27.80;68.20;;;;;;5073843;28;20151;-48
2021/08/30 11:39:14;;;;;;;3.05;1.70;;;28.10;68.80;;;;;;5074255;28;20020;-50
2021/08/30 11:41:41;;;;;;;1.50;1.13;;;28.20;68.70;;;;;;5073980;28;20169;-49
2021/08/30 11:44:06;;;;;;;2.33;1.50;;;28.50;68.60;;;;;;5074153;28;20031;-50
2021/08/30 11:46:44;;;;;;;3.28;1.30;;;28.40;66.60;;;;;;5038655;28;20392;-49
2021/08/30 11:49:10;;;;;;;1.40;1.10;;;27.80;67.20;;;;;;5038123;28;20040;-50
2021/08/30 11:51:44;;;;;;;6.32;1.50;;;28.20;67.30;;;;;;5038406;28;20416;-50
2021/08/30 11:54:35;;;;;;;1.55;1.42;;;28.10;66.00;;;;;;5073914;28;20107;-53
2021/08/30 11:57:12;;;;;;;3.38;1.50;;;28.10;67.10;;;;;;5038348;28;20392;-48
2021/08/30 11:59:42;;;;;;;1.52;1.30;;;;;;;;;;5073750;28;20194;-49
2021/08/30 12:02:10;;;;;;;1.33;1.23;;;;;;;;;;5073228;28;20502;-49
2021/08/30 12:04:37;;;;;;;3.80;1.27;;;28.20;64.50;;;;;;5073658;28;20031;-47
2021/08/30 12:07:06;;;;;;;2.92;1.40;;;27.70;64.40;;;;;;5038424;28;20484;-50
2021/08/30 12:09:51;;;;;;;1.48;1.13;;;28.10;65.80;;;;;;5038244;28;20036;-49
2021/08/30 12:12:34;;;;;;;2.25;1.33;;;28.00;67.20;;;;;;5073634;28;20071;-50
2021/08/30 12:15:08;;;;;;;2.65;1.30;;;27.70;66.10;;;;;;5073106;28;20029;-49
2021/08/30 12:17:38;;;;;;;2.08;1.30;;;27.80;64.50;;;;;;5073552;28;20089;-49
2021/08/30 12:20:11;;;;;;;2.47;1.77;;;27.90;64.00;;;;;;5037952;28;20040;-49
2021/08/30 12:22:39;;;;;;;1.30;1.20;;;;;;;;;;5038013;28;20025;-49
2021/08/30 12:25:29;;;;;;;2.17;1.45;;;28.30;64.90;;;;;;5073036;28;20054;-49
2021/08/30 12:27:55;;;;;;;4.07;2.10;;;;;;;;;;5072927;28;20036;-49
2021/08/30 12:30:30;;;;;;;2.22;1.30;;;28.60;63.90;;;;;;5072876;28;20487;-49
2021/08/30 12:32:55;;;;;;;4.38;1.60;;;27.90;64.20;;;;;;5073213;28;20086;-49
2021/08/30 12:35:25;;;;;;;1.88;1.40;;;27.80;65.60;;;;;;5037620;28;20472;-50
2021/08/30 12:37:53;;;;;;;17.17;2.70;;;27.80;66.70;;;;;;5073071;28;20112;-49
2021/08/30 12:40:19;;;;;;;2.33;1.60;;;27.50;65.20;;;;;;5037414;28;20107;-50
2021/08/30 12:42:45;;;;;;;1.45;1.33;;;27.60;66.50;;;;;;5072501;28;20025;-50
2021/08/30 12:45:12;;;;;;;1.75;1.40;;;28.30;66.30;;;;;;5072964;28;20039;-49
2021/08/30 12:47:38;;;;;;;1.80;1.50;;;;;;;;;;5072924;28;20036;-49
2021/08/30 12:50:04;;;;;;;2.42;1.40;;;28.40;65.50;;;;;;5072642;28;20468;-51
2021/08/30 12:52:30;;;;;;;2.60;1.60;;;;;;;;;;5072665;28;20043;-51
2021/08/30 12:54:56;;;;;;;1.63;1.33;;;29.20;61.60;;;;;;5084920;28;20541;-49
2021/08/30 12:57:22;;;;;;;2.25;1.33;;;28.80;62.60;;;;;;5074465;28;20032;-51